Terminal Aerodrome Forecast
Issued by NWS

Home | Current Version | Previous Version | Graphics & Text | Print | Product List | Glossary On
Versions: 1 2 3 4 5 6 7 8 9 10 11 12 13 14 15 16 17 18 19 20 21
000
FTUS42 KMHX 060540
TAFOAJ
TAF
KOAJ 060540Z 0606/0706 01015G22KT P6SM OVC015
      TEMPO 0606/0607 5SM -DZ BR BKN009
     FM061200 01015G23KT P6SM SCT025 BKN035
     FM061800 02010KT P6SM SCT040
     FM070200 03003KT P6SM SKC
      AMD LTD TO CLD VIS AND WIND=

USA.gov is the U.S. government's official web portal to all federal, state and local government web resources and services.